Time;durP1;ratioP1;P1;durP2;ratioP2;P2;SDS_P1;SDS_P2;PMS_P1;PMS_P2;Temp;Humidity;BMP_temperature;BMP_pressure;BME280_temperature;BME280_humidity;BME280_pressure;Samples;Min_cycle;Max_cycle;Signal;HPM_P1;HPM_P2
2022/08/06 00:02:26;;;;;;;8.45;2.42;;;;;;;15.40;59.81;102474.31;4995790;28;20031;-67
2022/08/06 00:04:52;;;;;;;6.45;2.65;;;;;;;15.44;60.00;102477.03;4995903;28;20043;-69
2022/08/06 00:07:18;;;;;;;6.93;2.50;;;;;;;15.62;59.38;102472.88;4995626;28;20018;-67
2022/08/06 00:09:44;;;;;;;6.38;2.60;;;;;;;15.69;59.19;102481.03;4995501;28;20040;-68
2022/08/06 00:12:09;;;;;;;8.57;2.45;;;;;;;15.63;59.04;102483.59;4995631;28;20049;-67
2022/08/06 00:14:35;;;;;;;10.82;2.40;;;;;;;15.54;59.34;102488.75;4995281;28;20022;-68
2022/08/06 00:17:01;;;;;;;8.55;2.67;;;;;;;15.29;60.33;102487.44;4995511;28;20097;-69
2022/08/06 00:19:26;;;;;;;8.23;2.70;;;;;;;15.11;60.72;102477.34;4995275;28;20026;-68
2022/08/06 00:21:53;;;;;;;5.03;2.50;;;;;;;15.03;61.20;102494.94;4995359;28;20089;-68
2022/08/06 00:24:20;;;;;;;9.80;2.97;;;;;;;15.07;61.08;102487.91;4995235;28;20066;-68
2022/08/06 00:26:46;;;;;;;8.05;2.55;;;;;;;15.22;60.62;102490.88;4995200;28;20030;-68
2022/08/06 00:29:12;;;;;;;6.03;2.35;;;;;;;15.42;59.91;102494.78;4995047;28;20108;-68
2022/08/06 00:31:37;;;;;;;8.77;2.80;;;;;;;15.34;60.06;102490.19;4977805;28;20030;-67
2022/08/06 00:34:03;;;;;;;10.68;2.55;;;;;;;15.17;60.67;102497.88;4995058;28;20476;-68
2022/08/06 00:36:31;;;;;;;7.13;2.60;;;;;;;14.99;61.07;102509.97;4995090;28;20038;-68
2022/08/06 00:38:58;;;;;;;9.10;2.80;;;;;;;14.83;61.67;102501.66;4995039;28;20030;-68
2022/08/06 00:41:23;;;;;;;8.80;2.55;;;;;;;14.67;62.31;102512.00;4995084;28;20023;-68
2022/08/06 00:43:49;;;;;;;6.07;2.47;;;;;;;14.68;61.94;102505.78;4994872;28;20038;-68
2022/08/06 00:46:14;;;;;;;9.00;2.70;;;;;;;14.73;61.76;102511.19;4994918;28;20030;-68
2022/08/06 00:48:40;;;;;;;8.30;2.65;;;;;;;14.86;61.59;102505.28;4994619;28;20113;-68
2022/08/06 00:51:05;;;;;;;5.10;2.33;;;;;;;15.05;61.00;102508.28;4994291;28;20026;-67
2022/08/06 00:53:31;;;;;;;7.72;2.50;;;;;;;14.98;60.98;102512.59;4994969;28;20054;-68
2022/08/06 00:55:56;;;;;;;7.13;2.80;;;;;;;14.85;61.45;102511.44;4994703;28;20018;-67
2022/08/06 00:58:22;;;;;;;8.65;2.63;;;;;;;14.78;61.41;102521.09;4994448;28;20038;-68
2022/08/06 01:00:47;;;;;;;7.30;2.60;;;;;;;14.72;61.00;102518.28;4994424;28;20027;-68
2022/08/06 01:03:16;;;;;;;6.00;2.90;;;;;;;14.59;61.58;102513.59;4994591;28;20026;-68
2022/08/06 01:05:44;;;;;;;5.25;2.55;;;;;;;14.46;62.27;102527.47;4994342;28;20348;-68
2022/08/06 01:08:10;;;;;;;7.05;2.60;;;;;;;14.24;62.67;102526.09;4994992;28;20412;-68
2022/08/06 01:10:36;;;;;;;6.07;2.80;;;;;;;14.12;63.45;102528.47;4994342;28;20037;-67
2022/08/06 01:13:01;;;;;;;6.40;2.53;;;;;;;14.10;63.46;102538.19;4994330;28;20389;-68
2022/08/06 01:15:27;;;;;;;10.15;2.80;;;;;;;14.03;63.52;102538.03;4976871;28;20385;-69
2022/08/06 01:18:03;;;;;;;7.55;2.50;;;;;;;14.01;63.78;102536.22;4994319;28;20034;-67
2022/08/06 01:21:03;;;;;;;9.18;2.67;;;;;;;13.95;63.71;102542.25;4994414;28;20026;-68
2022/08/06 01:23:52;;;;;;;7.72;2.60;;;;;;;13.84;64.22;102548.19;4994031;28;20030;-70
2022/08/06 01:26:34;;;;;;;5.07;2.38;;;;;;;13.79;64.34;102545.44;4993014;28;20448;-68
2022/08/06 01:29:04;;;;;;;5.55;2.55;;;;;;;13.68;65.22;102545.13;4994002;28;20027;-68
2022/08/06 01:31:38;;;;;;;5.72;2.60;;;;;;;13.55;65.52;102542.13;4994040;28;20381;-68
2022/08/06 01:34:13;;;;;;;8.45;2.72;;;;;;;13.45;66.03;102548.97;4994038;28;20068;-68
2022/08/06 01:36:55;;;;;;;5.60;2.40;;;;;;;13.39;65.51;102546.13;4993819;28;20037;-67
2022/08/06 01:39:24;;;;;;;6.88;2.78;;;;;;;13.47;65.48;102550.78;4994130;28;20034;-68
2022/08/06 01:41:53;;;;;;;9.00;2.60;;;;;;;13.62;64.95;102545.00;4993795;28;20018;-67
2022/08/06 01:44:22;;;;;;;6.22;2.58;;;;;;;13.70;64.79;102550.47;4993843;28;20060;-68
2022/08/06 01:46:56;;;;;;;8.35;2.90;;;;;;;13.75;64.26;102547.09;4993807;28;20400;-68
2022/08/06 01:49:27;;;;;;;6.18;2.72;;;;;;;13.83;64.38;102549.03;4993747;28;20396;-67
2022/08/06 01:51:56;;;;;;;5.45;2.50;;;;;;;13.93;64.01;102546.66;4993848;28;20030;-68
2022/08/06 01:54:24;;;;;;;8.00;2.72;;;;;;;14.20;63.16;102550.81;4993659;28;20461;-68
2022/08/06 01:56:52;;;;;;;9.07;2.58;;;;;;;14.31;62.76;102554.63;4993570;28;20113;-68
2022/08/06 01:59:22;;;;;;;7.47;2.65;;;;;;;14.40;62.33;102553.94;4993565;28;20024;-68
2022/08/06 02:01:52;;;;;;;6.82;2.78;;;;;;;14.36;62.53;102552.06;4975338;28;20456;-67
2022/08/06 02:04:19;;;;;;;8.68;3.00;;;;;;;14.37;62.57;102556.53;4993734;28;20363;-68
2022/08/06 02:06:47;;;;;;;5.93;2.80;;;;;;;14.31;62.49;102551.97;4993385;28;20026;-67
2022/08/06 02:09:17;;;;;;;6.70;2.60;;;;;;;14.19;62.95;102549.91;4993515;28;20066;-68
2022/08/06 02:11:48;;;;;;;6.10;2.45;;;;;;;13.90;63.90;102551.88;4993472;28;20041;-67
2022/08/06 02:14:15;;;;;;;8.70;2.80;;;;;;;13.77;64.44;102552.44;4993468;28;20033;-67
2022/08/06 02:16:42;;;;;;;8.10;3.03;;;;;;;13.65;64.84;102549.47;4993343;28;20078;-68
2022/08/06 02:19:11;;;;;;;7.28;2.70;;;;;;;13.52;65.34;102553.56;4993371;28;20066;-68
2022/08/06 02:21:38;;;;;;;9.50;3.10;;;;;;;13.41;65.81;102560.38;4993506;28;20496;-67
2022/08/06 02:24:07;;;;;;;9.60;2.95;;;;;;;13.39;65.77;102557.66;4992549;28;20035;-68
2022/08/06 02:26:35;;;;;;;5.25;2.65;;;;;;;13.34;66.02;102561.06;4957479;28;20137;-68
2022/08/06 02:29:04;;;;;;;9.02;3.08;;;;;;;13.39;65.54;102560.31;4973981;28;20118;-68
2022/08/06 02:31:30;;;;;;;7.90;2.80;;;;;;;13.45;65.63;102562.25;4973998;28;20023;-67
2022/08/06 02:33:55;;;;;;;9.73;3.00;;;;;;;13.60;64.86;102559.97;4973838;28;20030;-68
2022/08/06 02:36:29;;;;;;;7.45;2.78;;;;;;;13.81;63.97;102551.66;4973877;28;20027;-68
2022/08/06 02:39:15;;;;;;;10.98;2.92;;;;;;;13.78;64.20;102547.16;4973997;28;20519;-67
2022/08/06 02:42:01;;;;;;;9.38;2.80;;;;;;;13.73;64.21;102554.13;4973864;28;20086;-67
2022/08/06 02:44:46;;;;;;;11.85;3.00;;;;;;;13.52;65.33;102553.56;4973865;28;20079;-68
2022/08/06 02:47:16;;;;;;;6.75;2.92;;;;;;;13.40;65.53;102561.22;4973650;28;20026;-69
2022/08/06 02:49:46;;;;;;;12.48;3.15;;;;;;;13.30;66.33;102561.84;4973763;28;20045;-68
2022/08/06 02:52:19;;;;;;;7.30;2.95;;;;;;;13.23;66.50;102567.00;4973877;28;20113;-68
2022/08/06 02:54:55;;;;;;;7.25;2.85;;;;;;;13.23;66.44;102563.41;4973616;28;20458;-67
2022/08/06 02:57:24;;;;;;;7.10;2.95;;;;;;;13.17;66.84;102563.22;4973655;28;20102;-67
2022/08/06 02:59:54;;;;;;;6.45;2.80;;;;;;;13.20;66.67;102566.88;4973617;28;20023;-68
2022/08/06 03:02:23;;;;;;;6.43;2.70;;;;;;;13.41;65.88;102563.94;4973886;28;20058;-68
2022/08/06 03:04:50;;;;;;;5.50;2.78;;;;;;;13.49;65.26;102554.41;4973715;28;20074;-67
2022/08/06 03:07:18;;;;;;;8.77;2.80;;;;;;;13.55;64.61;102566.03;4973359;28;20544;-68
2022/08/06 03:09:47;;;;;;;7.15;2.72;;;;;;;13.49;64.74;102567.69;4956399;28;20031;-68
2022/08/06 03:12:15;;;;;;;8.00;2.75;;;;;;;13.48;64.60;102572.94;4973669;28;20030;-68
2022/08/06 03:14:43;;;;;;;5.70;2.90;;;;;;;13.43;64.76;102572.81;4977226;28;20023;-67
2022/08/06 03:17:12;;;;;;;7.85;2.85;;;;;;;13.42;64.78;102570.13;4976970;28;20452;-68
2022/08/06 03:19:38;;;;;;;7.45;2.70;;;;;;;13.39;65.09;102567.38;4959754;28;20031;-67
2022/08/06 03:22:06;;;;;;;8.65;2.70;;;;;;;13.39;64.97;102573.59;4959763;28;20027;-67
2022/08/06 03:24:34;;;;;;;9.13;2.97;;;;;;;13.41;64.50;102571.00;4981044;28;20042;-67
2022/08/06 03:27:00;;;;;;;6.57;2.70;;;;;;;13.45;64.45;102570.22;4996500;28;20473;-67
2022/08/06 03:29:26;;;;;;;6.35;2.72;;;;;;;13.50;64.40;102573.91;4996240;28;20023;-68
2022/08/06 03:31:53;;;;;;;6.97;2.80;;;;;;;13.45;64.98;102576.44;4996372;28;20030;-68
2022/08/06 03:34:19;;;;;;;10.00;3.03;;;;;;;13.34;65.00;102572.56;4996168;28;20477;-67
2022/08/06 03:36:45;;;;;;;8.20;3.00;;;;;;;13.24;65.33;102575.84;4996041;28;20042;-68
2022/08/06 03:39:12;;;;;;;7.75;2.72;;;;;;;13.23;64.91;102576.69;4996084;28;20037;-67
2022/08/06 03:41:39;;;;;;;6.90;2.55;;;;;;;13.20;65.20;102580.13;4996169;28;20034;-68
2022/08/06 03:44:05;;;;;;;6.85;2.63;;;;;;;13.15;65.60;102591.50;4996106;28;20507;-68
2022/08/06 03:46:57;;;;;;;6.13;2.72;;;;;;;13.08;65.91;102590.41;4995945;28;20105;-67
2022/08/06 03:49:30;;;;;;;10.35;3.00;;;;;;;12.84;67.09;102587.03;4995923;28;20105;-68
2022/08/06 03:51:58;;;;;;;5.00;2.55;;;;;;;12.72;67.17;102590.25;4995910;28;20018;-68
2022/08/06 03:54:30;;;;;;;8.25;2.95;;;;;;;12.56;67.77;102591.53;4996072;28;20034;-66
2022/08/06 03:56:59;;;;;;;;;;;;;;;12.76;65.37;102600.06;4996330;28;20023;-67
2022/08/06 03:59:27;;;;;;;9.05;2.83;;;;;;;12.54;67.97;102603.81;4995689;28;20283;-68
2022/08/06 04:01:56;;;;;;;6.00;3.00;;;;;;;12.45;68.04;102598.22;4995680;28;20435;-67
2022/08/06 04:04:23;;;;;;;6.53;3.20;;;;;;;12.44;68.42;102604.41;4995665;28;20026;-68
2022/08/06 04:06:50;;;;;;;8.02;2.90;;;;;;;12.38;68.56;102599.81;4995559;28;20392;-68
2022/08/06 04:09:16;;;;;;;7.65;3.22;;;;;;;12.40;68.93;102610.47;4978015;28;20027;-69
2022/08/06 04:11:42;;;;;;;6.78;2.97;;;;;;;12.31;69.22;102605.75;4995659;28;20026;-67
2022/08/06 04:14:08;;;;;;;8.48;3.10;;;;;;;12.28;69.75;102606.56;4994608;28;20388;-67
2022/08/06 04:16:35;;;;;;;8.20;2.85;;;;;;;12.27;69.78;102611.81;4995371;28;20476;-68
2022/08/06 04:19:02;;;;;;;10.73;3.30;;;;;;;12.36;69.01;102619.16;4995424;28;20492;-66
2022/08/06 04:21:28;;;;;;;8.00;3.08;;;;;;;12.28;69.96;102611.84;4995481;28;20073;-67
2022/08/06 04:23:54;;;;;;;8.73;3.40;;;;;;;12.26;69.60;102623.28;4994814;28;20031;-67
2022/08/06 04:26:23;;;;;;;9.93;3.38;;;;;;;12.16;70.59;102616.78;4994813;28;20051;-68
2022/08/06 04:28:52;;;;;;;10.52;3.22;;;;;;;12.11;70.80;102622.75;4995173;28;20473;-68
2022/08/06 04:31:20;;;;;;;6.22;3.10;;;;;;;12.02;70.93;102629.56;4995184;28;20033;-67
2022/08/06 04:33:47;;;;;;;8.63;3.00;;;;;;;11.98;70.70;102625.00;4995231;28;20073;-67
2022/08/06 04:36:13;;;;;;;11.57;3.20;;;;;;;11.93;71.49;102631.00;4995290;28;20022;-68
2022/08/06 04:38:40;;;;;;;10.68;3.45;;;;;;;11.95;71.72;102635.53;4995045;28;20056;-67
2022/08/06 04:41:06;;;;;;;9.38;3.17;;;;;;;12.11;70.64;102631.59;4994981;28;20057;-68
2022/08/06 04:43:32;;;;;;;6.13;3.28;;;;;;;12.26;70.81;102626.81;4994798;28;20117;-67
2022/08/06 04:45:57;;;;;;;7.32;3.30;;;;;;;12.47;70.17;102631.03;4994952;28;20023;-66
2022/08/06 04:48:24;;;;;;;5.43;3.22;;;;;;;12.73;69.24;102640.69;4994670;28;20026;-67
2022/08/06 04:50:49;;;;;;;10.57;3.53;;;;;;;13.01;68.72;102636.19;4994809;28;20379;-68
2022/08/06 04:53:17;;;;;;;10.73;3.58;;;;;;;13.06;68.55;102638.97;4994772;28;20027;-67
2022/08/06 04:55:44;;;;;;;15.40;3.42;;;;;;;13.08;68.03;102646.13;4994810;28;20033;-67
2022/08/06 04:58:11;;;;;;;14.68;3.50;;;;;;;13.15;68.08;102647.22;4994612;28;20045;-68
2022/08/06 05:00:40;;;;;;;9.50;3.53;;;;;;;13.26;67.60;102653.75;4977036;28;20018;-68
2022/08/06 05:03:05;;;;;;;14.30;3.58;;;;;;;13.41;67.15;102637.38;4994652;28;20412;-67
2022/08/06 05:05:35;;;;;;;9.85;3.28;;;;;;;13.58;66.84;102648.47;4994464;28;20027;-68
2022/08/06 05:08:04;;;;;;;10.27;3.47;;;;;;;13.67;66.95;102644.31;4977138;28;20036;-67
2022/08/06 05:10:37;;;;;;;10.52;3.47;;;;;;;13.91;66.54;102649.34;4994492;28;20031;-68
2022/08/06 05:13:04;;;;;;;8.90;3.80;;;;;;;14.10;66.24;102641.84;4994410;28;20019;-67
2022/08/06 05:15:38;;;;;;;7.43;3.60;;;;;;;14.03;66.46;102649.66;4994400;28;20026;-68
2022/08/06 05:18:10;;;;;;;7.97;3.70;;;;;;;13.98;67.22;102655.72;4994022;28;20480;-68
2022/08/06 05:20:39;;;;;;;6.57;3.80;;;;;;;13.95;67.22;102663.63;4994453;28;20045;-68
2022/08/06 05:23:12;;;;;;;7.65;3.88;;;;;;;14.04;67.32;102666.50;4976632;28;20125;-68
2022/08/06 05:25:39;;;;;;;13.35;4.28;;;;;;;14.14;67.35;102665.91;4994033;28;20129;-68
2022/08/06 05:28:05;;;;;;;14.55;4.07;;;;;;;14.24;67.40;102665.25;4993997;28;20048;-67
2022/08/06 05:30:31;;;;;;;12.25;4.53;;;;;;;14.44;67.53;102673.72;4994072;28;20030;-68
2022/08/06 05:32:58;;;;;;;10.82;4.05;;;;;;;14.65;66.95;102665.41;4993954;28;20034;-68
2022/08/06 05:35:24;;;;;;;11.75;4.20;;;;;;;14.75;66.88;102666.50;4993787;28;20026;-68
2022/08/06 05:37:49;;;;;;;9.73;3.88;;;;;;;14.84;66.68;102661.38;4993981;28;20033;-67
2022/08/06 05:40:14;;;;;;;9.43;4.00;;;;;;;15.09;66.72;102683.22;4993786;28;20464;-68
2022/08/06 05:42:40;;;;;;;12.25;4.30;;;;;;;15.24;66.29;102679.09;4993780;28;20109;-68
2022/08/06 05:45:09;;;;;;;10.73;3.78;;;;;;;15.42;66.18;102685.69;4994083;28;20027;-68
2022/08/06 05:47:37;;;;;;;10.63;4.28;;;;;;;15.58;66.00;102681.53;4993700;28;20050;-67
2022/08/06 05:50:18;;;;;;;11.00;3.90;;;;;;;15.85;64.80;102668.78;4993854;28;20082;-68
2022/08/06 05:52:53;;;;;;;13.45;4.32;;;;;;;16.08;65.03;102670.97;4993984;28;20046;-69
2022/08/06 05:55:30;;;;;;;7.25;3.70;;;;;;;16.25;64.34;102678.38;4993978;28;20161;-67
2022/08/06 05:58:02;;;;;;;9.75;3.78;;;;;;;16.43;64.18;102675.09;4976384;28;20523;-67
2022/08/06 06:00:32;;;;;;;7.97;3.55;;;;;;;16.52;63.84;102675.25;4993597;28;20030;-67
2022/08/06 06:02:59;;;;;;;6.18;3.20;;;;;;;16.70;62.97;102677.31;4976172;28;20026;-67
2022/08/06 06:05:26;;;;;;;10.05;3.35;;;;;;;16.70;63.03;102679.97;4976545;28;20046;-68
2022/08/06 06:07:54;;;;;;;9.63;3.38;;;;;;;16.76;63.35;102684.53;4993428;28;20114;-68
2022/08/06 06:10:22;;;;;;;8.07;2.97;;;;;;;16.79;63.03;102681.94;4976642;28;20054;-67
2022/08/06 06:12:49;;;;;;;8.57;3.22;;;;;;;16.92;62.59;102686.56;4993410;28;20484;-67
2022/08/06 06:15:17;;;;;;;9.57;3.60;;;;;;;17.08;62.99;102684.97;4993431;28;20030;-67
2022/08/06 06:17:57;;;;;;;8.15;3.33;;;;;;;17.18;63.02;102686.00;4993463;28;20034;-67
2022/08/06 06:20:36;;;;;;;11.00;3.40;;;;;;;17.38;62.07;102691.59;4993549;28;20041;-67
2022/08/06 06:23:17;;;;;;;9.20;3.60;;;;;;;17.44;61.87;102684.56;4993719;28;20492;-68
2022/08/06 06:26:01;;;;;;;9.25;3.13;;;;;;;17.54;62.06;102680.19;4993173;28;20058;-68
2022/08/06 06:28:35;;;;;;;7.07;3.10;;;;;;;17.80;61.68;102685.84;4993540;28;20122;-67
2022/08/06 06:31:30;;;;;;;5.60;2.97;;;;;;;17.84;61.18;102684.13;4993161;28;20029;-68
2022/08/06 06:34:25;;;;;;;7.47;2.97;;;;;;;18.03;60.85;102696.81;4993327;28;20038;-67
2022/08/06 06:37:16;;;;;;;8.32;2.92;;;;;;;18.11;60.23;102700.41;4993242;28;20062;-67
2022/08/06 06:39:54;;;;;;;11.23;3.35;;;;;;;18.34;59.82;102689.94;4993271;28;20026;-68
2022/08/06 06:42:26;;;;;;;16.73;3.58;;;;;;;18.69;58.98;102684.88;4993158;28;20403;-67
2022/08/06 06:45:00;;;;;;;17.15;3.80;;;;;;;18.80;58.12;102689.38;4993242;28;20030;-68
2022/08/06 06:47:55;;;;;;;10.02;3.38;;;;;;;18.96;58.33;102694.84;4993805;28;20034;-68
2022/08/06 06:50:28;;;;;;;9.30;3.00;;;;;;;19.11;57.23;102704.75;4990364;28;20138;-68
2022/08/06 06:52:55;;;;;;;13.15;3.08;;;;;;;19.15;56.55;102703.00;4996892;28;20036;-68
2022/08/06 06:55:32;;;;;;;11.73;3.28;;;;;;;19.41;56.51;102697.75;4997121;28;20123;-67
2022/08/06 06:58:10;;;;;;;11.68;2.90;;;;;;;19.67;55.47;102708.59;4996996;28;20073;-68
2022/08/06 07:00:37;;;;;;;7.68;2.80;;;;;;;19.83;54.76;102702.38;4996850;28;20078;-68
2022/08/06 07:03:04;;;;;;;12.25;3.22;;;;;;;20.08;53.99;102697.03;4996845;28;20053;-67
2022/08/06 07:05:31;;;;;;;8.80;2.67;;;;;;;20.28;53.68;102697.94;4996617;28;20030;-68
2022/08/06 07:07:59;;;;;;;11.93;2.65;;;;;;;20.55;52.79;102701.53;4996677;28;20031;-68
2022/08/06 07:10:26;;;;;;;10.15;2.80;;;;;;;20.72;51.28;102705.09;4996698;28;20030;-68
2022/08/06 07:12:53;;;;;;;8.63;2.80;;;;;;;20.94;50.70;102696.09;4996512;28;20039;-67
2022/08/06 07:15:22;;;;;;;5.53;2.78;;;;;;;21.00;50.88;102701.44;4996890;28;20073;-67
2022/08/06 07:17:49;;;;;;;5.82;2.10;;;;;;;21.14;49.47;102706.78;4996325;28;20512;-67
2022/08/06 07:20:20;;;;;;;5.07;1.90;;;;;;;21.33;49.51;102701.38;4996575;28;20026;-67
2022/08/06 07:22:47;;;;;;;10.13;2.20;;;;;;;21.45;48.88;102701.28;4996448;28;20026;-68
2022/08/06 07:25:14;;;;;;;5.95;1.90;;;;;;;21.60;46.93;102708.41;4996308;28;20505;-67
2022/08/06 07:27:42;;;;;;;5.93;1.90;;;;;;;21.68;47.81;102711.97;4996436;28;20023;-68
2022/08/06 07:30:10;;;;;;;6.93;2.03;;;;;;;21.87;47.31;102712.72;4996063;28;20022;-67
2022/08/06 07:32:37;;;;;;;5.68;1.55;;;;;;;21.98;46.50;102716.25;4996088;28;20380;-67
2022/08/06 07:35:08;;;;;;;4.38;1.77;;;;;;;22.27;47.19;102720.53;4978779;28;20539;-67
2022/08/06 07:37:35;;;;;;;5.82;1.80;;;;;;;22.38;45.66;102724.94;4996276;28;20092;-68
2022/08/06 07:40:05;;;;;;;6.10;1.80;;;;;;;22.45;46.20;102717.72;4996320;28;20080;-67
2022/08/06 07:42:31;;;;;;;9.23;2.55;;;;;;;22.68;44.46;102729.16;4996429;28;20022;-67
2022/08/06 07:45:01;;;;;;;5.70;1.90;;;;;;;22.77;43.97;102721.91;4978543;28;20391;-68
2022/08/06 07:47:36;;;;;;;4.78;1.60;;;;;;;22.95;44.24;102725.34;4995985;28;20514;-67
2022/08/06 07:50:01;;;;;;;5.30;1.67;;;;;;;23.11;43.00;102727.84;4996023;28;20037;-68
2022/08/06 07:52:28;;;;;;;5.47;1.83;;;;;;;23.32;42.64;102733.00;4995781;28;20027;-68
2022/08/06 07:54:55;;;;;;;6.43;1.70;;;;;;;23.46;41.17;102727.41;4995957;28;20492;-68
2022/08/06 07:57:22;;;;;;;6.28;2.00;;;;;;;23.24;41.42;102727.69;4995728;28;20026;-68
2022/08/06 07:59:48;;;;;;;5.97;1.83;;;;;;;23.23;42.09;102725.91;4994686;28;20026;-68
2022/08/06 08:02:14;;;;;;;5.03;2.20;;;;;;;23.21;42.27;102733.13;4995741;28;20049;-68
2022/08/06 08:07:24;;;;;;;7.72;2.25;;;;;;;23.72;40.51;102735.19;4995924;28;20049;-68
2022/08/06 08:09:51;;;;;;;5.57;1.83;;;;;;;23.71;40.18;102737.00;4995492;28;20488;-67
2022/08/06 08:12:18;;;;;;;5.70;1.70;;;;;;;23.74;39.89;102741.47;4995665;28;20033;-67
2022/08/06 08:14:45;;;;;;;3.85;1.52;;;;;;;23.95;39.48;102737.56;4995460;28;20117;-68
2022/08/06 08:17:11;;;;;;;5.70;1.63;;;;;;;24.19;39.40;102734.47;4995572;28;20022;-68
2022/08/06 08:19:37;;;;;;;7.03;2.00;;;;;;;24.38;38.58;102729.72;4995516;28;20027;-67
2022/08/06 08:22:08;;;;;;;3.72;1.65;;;;;;;24.61;38.02;102739.22;4995238;28;20037;-68
2022/08/06 08:24:35;;;;;;;5.00;1.83;;;;;;;24.76;37.78;102727.25;4995374;28;20041;-68
2022/08/06 08:27:03;;;;;;;5.03;2.00;;;;;;;24.78;37.35;102741.63;4995211;28;20037;-67
2022/08/06 08:29:28;;;;;;;3.42;1.50;;;;;;;24.73;36.97;102736.31;4995232;28;20480;-68
2022/08/06 08:31:55;;;;;;;5.10;1.52;;;;;;;24.43;36.94;102732.34;4995134;28;20082;-68
2022/08/06 08:34:20;;;;;;;5.95;1.70;;;;;;;24.61;36.55;102733.81;4995322;28;20073;-67
2022/08/06 08:36:46;;;;;;;5.32;1.58;;;;;;;24.72;35.08;102745.34;4994813;28;20034;-68
2022/08/06 08:39:11;;;;;;;5.63;1.55;;;;;;;24.94;34.52;102735.91;4995036;28;20031;-68
2022/08/06 08:41:43;;;;;;;5.22;1.80;;;;;;;24.94;34.74;102743.13;4995026;28;20030;-68
2022/08/06 08:44:08;;;;;;;2.95;1.55;;;;;;;25.22;34.61;102735.38;4995022;28;20105;-67
2022/08/06 08:46:38;;;;;;;5.28;1.80;;;;;;;25.31;34.37;102739.72;4994951;28;20054;-68
2022/08/06 08:49:06;;;;;;;6.70;1.42;;;;;;;24.96;34.05;102731.34;4994804;28;20419;-68
2022/08/06 08:51:39;;;;;;;4.10;1.77;;;;;;;24.55;36.07;102742.94;4994842;28;20480;-68
2022/08/06 08:54:09;;;;;;;5.78;1.85;;;;;;;24.17;35.35;102738.13;4994857;28;20034;-68
2022/08/06 08:56:36;;;;;;;5.65;1.50;;;;;;;24.07;36.02;102747.28;4994802;28;20085;-68
2022/08/06 08:59:02;;;;;;;3.83;1.30;;;;;;;24.11;34.77;102736.44;4994692;28;20034;-68
2022/08/06 09:01:27;;;;;;;2.45;1.40;;;;;;;24.44;34.72;102739.53;4994504;28;20377;-67
2022/08/06 09:03:53;;;;;;;5.95;1.70;;;;;;;24.76;33.88;102740.78;4994664;28;20030;-68
2022/08/06 09:06:21;;;;;;;5.90;1.70;;;;;;;24.93;34.02;102738.66;4994370;28;20480;-68
2022/08/06 09:08:47;;;;;;;3.63;1.60;;;;;;;25.20;34.08;102745.34;4994382;28;20033;-68
2022/08/06 09:11:14;;;;;;;4.82;1.80;;;;;;;25.50;32.83;102743.84;4994104;28;20030;-68
2022/08/06 09:13:39;;;;;;;3.28;1.60;;;;;;;25.96;33.17;102741.03;4994505;28;20026;-68
2022/08/06 09:16:05;;;;;;;4.43;1.63;;;;;;;26.18;32.05;102746.81;4994284;28;20038;-68
2022/08/06 09:18:30;;;;;;;11.40;3.40;;;;;;;26.28;30.46;102746.59;4994250;28;20481;-68
2022/08/06 09:20:59;;;;;;;2.47;1.55;;;;;;;26.26;30.07;102752.06;4994171;28;20511;-68
2022/08/06 09:23:24;;;;;;;4.60;1.60;;;;;;;26.66;30.54;102745.63;4993999;28;20101;-68
2022/08/06 09:25:52;;;;;;;4.60;1.60;;;;;;;26.90;29.49;102744.09;4993992;28;20195;-68
2022/08/06 09:28:29;;;;;;;2.75;1.20;;;;;;;27.20;29.60;102753.25;4976594;28;20037;-68
2022/08/06 09:31:19;;;;;;;3.30;1.70;;;;;;;27.59;30.30;102751.16;4994201;28;20030;-68
2022/08/06 09:34:01;;;;;;;4.65;1.50;;;;;;;27.75;29.12;102742.56;4972181;28;20077;-68
2022/08/06 09:36:27;;;;;;;4.35;1.38;;;;;;;27.93;28.23;102742.00;4994069;28;20398;-68
2022/08/06 09:38:56;;;;;;;4.40;1.52;;;;;;;28.17;29.24;102740.28;4993932;28;20074;-67
2022/08/06 09:41:24;;;;;;;3.97;1.60;;;;;;;28.18;29.96;102744.81;4994084;28;20038;-68
2022/08/06 09:43:52;;;;;;;3.20;1.20;;;;;;;28.09;28.88;102745.97;4993947;28;20030;-68
2022/08/06 09:46:35;;;;;;;4.43;1.48;;;;;;;28.25;28.31;102751.81;4993935;28;20030;-69
2022/08/06 09:49:02;;;;;;;2.15;1.15;;;;;;;27.98;27.68;102747.28;4993712;28;20432;-68
2022/08/06 09:51:28;;;;;;;2.20;1.05;;;;;;;28.40;26.12;102748.63;4993902;28;20477;-67
2022/08/06 09:53:58;;;;;;;5.55;1.52;;;;;;;28.60;26.27;102749.75;4993732;28;20041;-68
2022/08/06 09:56:25;;;;;;;3.20;1.30;;;;;;;28.63;25.83;102746.94;4993618;28;20034;-68
2022/08/06 09:58:57;;;;;;;4.35;1.20;;;;;;;28.68;26.46;102753.09;4993642;28;20021;-68
2022/08/06 10:01:24;;;;;;;2.85;1.20;;;;;;;28.85;24.88;102755.22;4993738;28;20030;-68
2022/08/06 10:03:51;;;;;;;2.13;1.02;;;;;;;28.79;25.40;102750.03;4993550;28;20041;-68
2022/08/06 10:06:20;;;;;;;2.15;1.20;;;;;;;28.81;24.75;102753.56;4993597;28;20023;-68
2022/08/06 10:08:47;;;;;;;2.53;1.13;;;;;;;28.62;25.91;102751.50;4993282;28;20452;-68
2022/08/06 10:11:13;;;;;;;1.80;1.02;;;;;;;28.61;25.30;102754.28;4993589;28;20121;-68
2022/08/06 10:13:39;;;;;;;4.40;1.60;;;;;;;28.82;25.59;102750.81;4993837;28;20547;-68
2022/08/06 10:16:15;;;;;;;3.00;1.40;;;;;;;28.83;26.45;102743.53;4993327;28;20019;-68
2022/08/06 10:18:43;;;;;;;3.58;1.35;;;;;;;28.71;25.83;102739.41;4993549;28;20424;-68
2022/08/06 10:21:12;;;;;;;2.50;1.25;;;;;;;28.27;27.11;102747.22;4993395;28;20031;-68
2022/08/06 10:23:40;;;;;;;6.07;1.70;;;;;;;27.57;27.22;102754.84;4995875;28;20018;-68
2022/08/06 10:26:13;;;;;;;4.15;1.50;;;;;;;27.29;27.94;102738.50;4997369;28;20062;-68
2022/08/06 10:28:41;;;;;;;3.55;1.50;;;;;;;27.49;28.25;102737.91;4997418;28;20053;-68
2022/08/06 10:31:09;;;;;;;5.72;1.50;;;;;;;28.00;26.84;102723.66;4997492;28;20476;-68
2022/08/06 10:33:58;;;;;;;3.55;1.80;;;;;;;28.47;27.93;102727.53;4997621;28;20448;-68
2022/08/06 10:36:31;;;;;;;6.00;1.80;;;;;;;28.59;27.09;102721.66;4997443;28;20026;-68
2022/08/06 10:38:57;;;;;;;4.40;1.60;;;;;;;28.88;25.71;102720.63;4997108;28;20034;-68
2022/08/06 10:41:23;;;;;;;7.82;1.80;;;;;;;29.00;25.33;102726.63;4997177;28;20135;-68
2022/08/06 10:43:50;;;;;;;2.70;1.40;;;;;;;29.40;25.03;102726.00;4997249;28;20025;-68
2022/08/06 10:46:16;;;;;;;4.82;1.48;;;;;;;29.31;24.99;102721.78;4997020;28;20119;-68
2022/08/06 10:48:44;;;;;;;6.20;1.70;;;;;;;29.03;25.26;102716.47;4996979;28;20117;-68
2022/08/06 10:51:11;;;;;;;5.55;1.40;;;;;;;28.99;24.47;102706.66;4997038;28;20041;-68
2022/08/06 10:53:39;;;;;;;3.38;1.25;;;;;;;28.95;24.41;102716.75;4997226;28;20057;-68
2022/08/06 10:56:06;;;;;;;3.47;1.45;;;;;;;29.20;23.26;102713.13;4996782;28;20038;-68
2022/08/06 10:58:33;;;;;;;2.95;1.38;;;;;;;29.63;23.74;102714.22;4996805;28;20419;-68
2022/08/06 11:01:02;;;;;;;5.07;1.67;;;;;;;29.74;23.84;102711.06;4997161;28;20026;-68
2022/08/06 11:03:44;;;;;;;4.47;1.35;;;;;;;29.84;25.16;102713.34;4996782;28;20465;-69
2022/08/06 11:06:18;;;;;;;;;;;;;;;30.47;24.32;102712.59;4997650;28;20031;-68
2022/08/06 11:09:22;;;;;;;3.85;1.50;;;;;;;30.15;24.42;102718.47;4996461;28;19973;-68
2022/08/06 11:12:09;;;;;;;3.55;1.30;;;;;;;29.88;24.09;102712.28;4973635;28;20065;-68
2022/08/06 11:14:37;;;;;;;2.17;1.30;;;;;;;29.65;22.83;102702.31;4996651;28;20499;-68
2022/08/06 11:17:03;;;;;;;3.47;1.52;;;;;;;29.77;22.95;102710.97;4979240;28;20101;-68
2022/08/06 11:19:39;;;;;;;2.97;1.30;;;;;;;29.85;23.18;102704.25;4996685;28;20555;-68
2022/08/06 11:22:05;;;;;;;2.08;1.30;;;;;;;29.85;21.89;102709.69;4996830;28;20030;-68
2022/08/06 11:24:31;;;;;;;3.65;1.40;;;;;;;29.76;22.83;102703.72;4996756;28;20030;-69
2022/08/06 11:26:56;;;;;;;2.65;1.33;;;;;;;29.58;22.54;102702.63;4979397;28;20023;-70
2022/08/06 11:29:22;;;;;;;5.40;1.33;;;;;;;29.53;22.17;102700.03;4997221;28;20030;-68
2022/08/06 11:31:50;;;;;;;2.97;1.52;;;;;;;29.72;23.10;102696.59;4996552;28;20062;-68
2022/08/06 11:34:19;;;;;;;3.75;1.30;;;;;;;29.62;21.77;102693.38;4996027;28;20030;-68
2022/08/06 11:36:44;;;;;;;1.73;1.17;;;;;;;29.91;22.77;102695.81;4996749;28;20431;-68
2022/08/06 11:39:10;;;;;;;2.90;1.40;;;;;;;29.99;22.64;102695.50;4996178;28;20050;-68